Viola, Idaho
Current Conditions -  °F | °C
As of 1:53 AM on Saturday 25 Oct 2014 (Local Time) from KPUW Reporting Station
Clear Clear  
Wind Chill: 44°   Ceiling: Unl
Heat Index: 49°   Visibility: 10mi
Dew Point: 43°   Wind: 14mph
Humidity: 80%   Direction: 110°ESE
Pressure: 29.85"   Gusts: NA
Location:  46.84°N, 117.02°W
Report Text: KPUW 250853Z AUTO 11012KT 10SM CLR 09/06 A2985 RMK AO2 SLP108 T00940061 58026
Loading
Personal Weather Stations






























Interactive Weather Map
Tropical Storm Tracking
New forecast layout! Learn more

10-Day Weather Forecast

Advertisements
Track Severe Weather on mobile